Time;durP1;ratioP1;P1;durP2;ratioP2;P2;SDS_P1;SDS_P2;PMS_P1;PMS_P2;Temp;Humidity;BMP_temperature;BMP_pressure;BME280_temperature;BME280_humidity;BME280_pressure;Samples;Min_cycle;Max_cycle;Signal;HPM_P1;HPM_P2
2021/12/18 00:01:23;;;;;;;;;95.25;78.75;;;;;;;;5073296;27;8843;-84
2021/12/18 00:03:51;;;;;;;;;88.00;69.25;;;;;;;;5072569;28;8769;-84
2021/12/18 00:06:27;;;;;;;;;91.00;72.00;;;;;;;;5056003;27;8831;-83
2021/12/18 00:08:56;;;;;;;;;84.50;67.50;;;;;;;;5054321;28;8794;-84
2021/12/18 00:11:21;;;;;;;;;82.80;67.60;;;;;;;;5071728;27;8813;-82
2021/12/18 00:13:46;;;;;;;;;93.67;76.67;;;;;;;;5072626;27;8805;-84
2021/12/18 00:16:12;;;;;;;;;81.75;64.00;;;;;;;;5062762;28;8981;-84
2021/12/18 00:18:48;;;;;;;;;82.75;67.50;;;;;;;;5052654;27;8837;-86
2021/12/18 00:21:17;;;;;;;;;97.80;83.00;;;;;;;;5065042;28;8793;-83
2021/12/18 00:23:43;;;;;;;;;87.80;70.40;;;;;;;;5053170;28;8876;-82
2021/12/18 00:26:08;;;;;;;;;94.60;81.00;;;;;;;;5051495;27;8819;-83
2021/12/18 00:28:33;;;;;;;;;93.50;76.25;;;;;;;;5071973;28;8817;-83
2021/12/18 00:30:59;;;;;;;;;97.25;83.50;;;;;;;;5063092;27;8819;-83
2021/12/18 00:33:24;;;;;;;;;91.75;74.75;;;;;;;;5055147;28;8823;-83
2021/12/18 00:39:13;;;;;;;;;96.60;79.00;;;;;;;;5111577;27;8765;-83
2021/12/18 00:44:12;;;;;;;;;93.40;77.20;;;;;;;;5123954;27;8773;-83
2021/12/18 00:46:40;;;;;;;;;93.00;76.25;;;;;;;;5051585;27;8811;-83
2021/12/18 00:49:06;;;;;;;;;90.20;71.40;;;;;;;;5051024;27;8729;-84
2021/12/18 00:51:31;;;;;;;;;99.00;86.00;;;;;;;;5052320;28;9720;-84
2021/12/18 00:53:57;;;;;;;;;101.00;88.00;;;;;;;;5051939;27;8844;-83
2021/12/18 00:56:22;;;;;;;;;99.75;87.75;;;;;;;;5045880;27;8910;-83
2021/12/18 00:58:49;;;;;;;;;96.40;83.80;;;;;;;;5044569;27;8870;-84
2021/12/18 01:01:15;;;;;;;;;101.00;91.00;;;;;;;;5052712;27;8796;-83
2021/12/18 01:03:41;;;;;;;;;97.00;82.67;;;;;;;;5051952;28;8812;-84
2021/12/18 01:06:07;;;;;;;;;104.00;95.00;;;;;;;;5077654;27;9814;-83
2021/12/18 01:08:32;;;;;;;;;101.00;89.50;;;;;;;;5084027;27;8800;-84
2021/12/18 01:13:34;;;;;;;;;107.00;98.50;;;;;;;;5052256;28;10479;-83
2021/12/18 01:16:09;;;;;;;;;100.75;91.75;;;;;;;;5051586;28;11532;-83
2021/12/18 01:24:03;;;;;;;;;99.25;88.50;;;;;;;;5051800;28;9746;-83
2021/12/18 01:26:28;;;;;;;;;99.60;84.80;;;;;;;;5052073;28;8784;-83
2021/12/18 01:28:54;;;;;;;;;97.25;82.25;;;;;;;;5051625;27;8836;-83
2021/12/18 01:31:19;;;;;;;;;96.00;79.33;;;;;;;;5051864;27;11599;-83
2021/12/18 01:33:44;;;;;;;;;96.00;76.50;;;;;;;;5051659;27;9905;-84
2021/12/18 01:36:10;;;;;;;;;99.67;86.67;;;;;;;;5050253;28;8824;-83
2021/12/18 01:38:35;;;;;;;;;102.75;92.25;;;;;;;;5052218;28;8792;-83
2021/12/18 01:41:02;;;;;;;;;99.25;89.00;;;;;;;;5051349;27;8796;-83
2021/12/18 01:51:18;;;;;;;;;98.40;82.60;;;;;;;;5057040;28;8838;-83
2021/12/18 01:53:45;;;;;;;;;94.75;80.00;;;;;;;;5071454;28;8958;-83
2021/12/18 01:56:10;;;;;;;;;95.25;77.50;;;;;;;;5061414;27;8829;-84
2021/12/18 01:58:36;;;;;;;;;94.80;81.80;;;;;;;;5042377;28;8824;-84
2021/12/18 02:01:03;;;;;;;;;94.75;76.75;;;;;;;;5051072;27;8760;-84
2021/12/18 02:03:29;;;;;;;;;88.25;70.75;;;;;;;;5051420;28;11550;-84
2021/12/18 02:05:54;;;;;;;;;83.75;68.00;;;;;;;;5067493;27;9821;-83
2021/12/18 02:08:24;;;;;;;;;95.75;81.75;;;;;;;;5090427;27;8858;-83
2021/12/18 02:10:58;;;;;;;;;90.00;71.20;;;;;;;;5049595;27;8899;-84
2021/12/18 02:21:29;;;;;;;;;78.25;64.25;;;;;;;;5051315;28;8827;-84
2021/12/18 02:23:56;;;;;;;;;80.25;63.75;;;;;;;;5051101;27;8807;-83
2021/12/18 02:26:22;;;;;;;;;78.75;64.25;;;;;;;;5064769;28;8816;-83
2021/12/18 02:28:49;;;;;;;;;92.25;75.75;;;;;;;;5049883;27;9699;-83
2021/12/18 02:31:15;;;;;;;;;63.80;51.60;;;;;;;;5064542;28;8809;-84
2021/12/18 02:33:41;;;;;;;;;97.25;80.25;;;;;;;;5050943;27;8781;-84
2021/12/18 02:36:09;;;;;;;;;89.80;72.80;;;;;;;;5051242;28;11578;-83
2021/12/18 02:44:03;;;;;;;;;85.00;67.75;;;;;;;;5096485;27;8766;-83
2021/12/18 02:46:28;;;;;;;;;72.40;59.00;;;;;;;;5038248;27;8800;-83
2021/12/18 02:48:54;;;;;;;;;83.40;67.00;;;;;;;;5050522;28;8834;-83
2021/12/18 02:51:20;;;;;;;;;77.60;64.00;;;;;;;;5050921;27;8764;-83
2021/12/18 02:53:47;;;;;;;;;92.25;72.00;;;;;;;;5050713;28;9577;-83
2021/12/18 02:56:14;;;;;;;;;86.80;69.40;;;;;;;;5045317;27;8887;-83
2021/12/18 02:58:40;;;;;;;;;95.00;76.00;;;;;;;;5055840;28;8758;-83
2021/12/18 03:01:08;;;;;;;;;87.25;68.75;;;;;;;;5051695;27;8804;-83
2021/12/18 03:03:37;;;;;;;;;93.50;71.00;;;;;;;;5050686;27;8800;-83
2021/12/18 03:06:41;;;;;;;;;89.60;72.40;;;;;;;;5072407;27;8794;-83
2021/12/18 03:25:00;;;;;;;;;98.00;84.50;;;;;;;;5080829;27;8892;-83
2021/12/18 03:27:25;;;;;;;;;89.80;70.80;;;;;;;;5050535;27;8792;-83
2021/12/18 03:29:51;;;;;;;;;93.00;73.00;;;;;;;;5050070;27;8850;-83
2021/12/18 03:32:17;;;;;;;;;88.00;70.25;;;;;;;;5050435;27;8918;-83
2021/12/18 03:34:42;;;;;;;;;100.50;88.75;;;;;;;;5050179;28;8800;-84
2021/12/18 03:37:08;;;;;;;;;93.25;76.25;;;;;;;;5048961;28;8896;-83
2021/12/18 03:39:33;;;;;;;;;97.75;83.00;;;;;;;;5050193;27;8830;-83
2021/12/18 03:41:59;;;;;;;;;95.00;77.75;;;;;;;;5050145;28;8792;-83
2021/12/18 03:44:24;;;;;;;;;100.50;84.75;;;;;;;;5097761;27;8962;-83
2021/12/18 03:46:50;;;;;;;;;97.50;83.00;;;;;;;;5049989;28;9717;-83
2021/12/18 03:49:16;;;;;;;;;97.50;80.00;;;;;;;;5050035;27;8873;-83
2021/12/18 03:51:41;;;;;;;;;90.50;73.00;;;;;;;;5048102;28;8819;-84
2021/12/18 03:54:06;;;;;;;;;99.00;85.00;;;;;;;;5049957;27;8919;-84
2021/12/18 03:56:32;;;;;;;;;93.33;77.00;;;;;;;;5049881;27;8834;-84
2021/12/18 03:58:57;;;;;;;;;90.75;72.25;;;;;;;;5048404;28;8832;-84
2021/12/18 04:01:23;;;;;;;;;110.75;107.75;;;;;;;;5050235;27;8828;-84
2021/12/18 04:03:48;;;;;;;;;97.50;82.00;;;;;;;;5049417;28;8803;-84
2021/12/18 04:06:14;;;;;;;;;107.75;102.25;;;;;;;;5080130;27;8910;-83
2021/12/18 04:08:39;;;;;;;;;103.20;92.00;;;;;;;;5075196;27;8749;-84
2021/12/18 04:11:05;;;;;;;;;110.75;104.50;;;;;;;;5049988;28;9563;-84
2021/12/18 04:13:30;;;;;;;;;105.67;99.67;;;;;;;;5048529;27;8940;-83
2021/12/18 04:15:56;;;;;;;;;100.50;92.00;;;;;;;;5047904;28;11595;-84
2021/12/18 04:18:21;;;;;;;;;107.50;103.00;;;;;;;;5049639;27;9547;-84
2021/12/18 04:20:47;;;;;;;;;110.00;108.25;;;;;;;;5049279;28;8843;-84
2021/12/18 04:23:12;;;;;;;;;102.33;94.33;;;;;;;;5049640;27;8864;-84
2021/12/18 04:25:37;;;;;;;;;98.50;84.75;;;;;;;;5049533;28;8822;-84
2021/12/18 04:28:03;;;;;;;;;102.33;95.00;;;;;;;;5049159;27;8902;-84
2021/12/18 04:30:28;;;;;;;;;100.50;88.50;;;;;;;;5049953;28;8842;-84
2021/12/18 04:32:53;;;;;;;;;99.50;90.00;;;;;;;;5066671;27;8950;-83
2021/12/18 04:35:19;;;;;;;;;112.25;101.25;;;;;;;;5053545;28;9535;-84
2021/12/18 04:37:44;;;;;;;;;97.33;86.00;;;;;;;;5052458;27;9594;-84
2021/12/18 04:40:10;;;;;;;;;102.00;93.00;;;;;;;;5052716;28;8828;-84
2021/12/18 04:42:35;;;;;;;;;103.80;97.00;;;;;;;;5052607;27;8808;-85
2021/12/18 04:45:01;;;;;;;;;101.50;91.00;;;;;;;;5096592;27;8788;-84
2021/12/18 04:47:26;;;;;;;;;110.33;107.33;;;;;;;;5052200;27;8811;-84
2021/12/18 04:49:51;;;;;;;;;102.00;93.25;;;;;;;;5051867;28;10419;-84
2021/12/18 04:52:17;;;;;;;;;104.25;100.25;;;;;;;;5065887;28;8898;-84
2021/12/18 04:54:44;;;;;;;;;106.67;98.00;;;;;;;;5052339;27;9042;-84
2021/12/18 04:57:10;;;;;;;;;102.25;94.00;;;;;;;;5055029;28;9687;-84
2021/12/18 04:59:42;;;;;;;;;98.00;88.00;;;;;;;;5052493;28;8959;-84
2021/12/18 05:02:07;;;;;;;;;102.40;95.40;;;;;;;;5056485;28;8812;-84
2021/12/18 05:04:33;;;;;;;;;109.25;105.00;;;;;;;;5065724;27;8876;-84
2021/12/18 05:06:58;;;;;;;;;102.75;95.25;;;;;;;;5091179;27;8840;-83
2021/12/18 05:09:24;;;;;;;;;105.25;103.00;;;;;;;;5052314;27;9722;-83
2021/12/18 05:11:50;;;;;;;;;91.67;75.67;;;;;;;;5051475;27;8835;-83
2021/12/18 05:14:16;;;;;;;;;87.25;69.75;;;;;;;;5052435;27;8786;-83
2021/12/18 05:16:41;;;;;;;;;89.67;76.67;;;;;;;;5070112;28;8920;-84
2021/12/18 05:19:07;;;;;;;;;90.25;75.00;;;;;;;;5071862;27;11546;-83
2021/12/18 05:21:32;;;;;;;;;85.00;67.67;;;;;;;;5072154;28;8821;-83
2021/12/18 05:23:57;;;;;;;;;100.00;88.50;;;;;;;;5071750;27;10008;-84
2021/12/18 05:26:23;;;;;;;;;92.00;77.75;;;;;;;;5070665;28;8840;-83
2021/12/18 05:28:48;;;;;;;;;97.00;87.50;;;;;;;;5070549;27;8833;-84
2021/12/18 05:31:17;;;;;;;;;98.00;80.00;;;;;;;;5070574;28;8902;-83
2021/12/18 05:33:43;;;;;;;;;96.40;83.80;;;;;;;;5071728;27;8774;-83
2021/12/18 05:36:29;;;;;;;;;90.80;74.40;;;;;;;;5071501;27;8812;-83
2021/12/18 05:38:53;;;;;;;;;95.50;84.50;;;;;;;;5071169;27;8777;-83
2021/12/18 05:41:19;;;;;;;;;97.67;84.00;;;;;;;;5070720;28;8829;-84
2021/12/18 05:43:44;;;;;;;;;96.33;85.33;;;;;;;;5095047;27;8801;-84
2021/12/18 05:46:09;;;;;;;;;93.50;80.00;;;;;;;;5051955;28;11721;-83
2021/12/18 05:48:35;;;;;;;;;98.67;88.67;;;;;;;;5050133;27;8819;-84
2021/12/18 05:51:02;;;;;;;;;93.75;79.50;;;;;;;;5059265;28;8840;-84
2021/12/18 05:53:27;;;;;;;;;99.25;89.25;;;;;;;;5071735;27;8865;-84
2021/12/18 05:55:53;;;;;;;;;92.50;76.50;;;;;;;;5060684;28;8831;-84
2021/12/18 05:58:18;;;;;;;;;95.25;84.00;;;;;;;;5050471;27;8852;-83
2021/12/18 06:00:44;;;;;;;;;95.33;84.33;;;;;;;;5051480;28;8858;-84
2021/12/18 06:03:09;;;;;;;;;94.20;78.80;;;;;;;;5051339;27;8869;-83
2021/12/18 06:05:35;;;;;;;;;92.00;76.33;;;;;;;;5053924;27;8811;-83
2021/12/18 06:08:02;;;;;;;;;92.00;78.25;;;;;;;;5093021;27;8844;-84
2021/12/18 06:10:29;;;;;;;;;87.60;70.40;;;;;;;;5050162;27;9714;-84
2021/12/18 06:12:57;;;;;;;;;91.40;77.60;;;;;;;;5051380;27;8861;-84
2021/12/18 06:15:22;;;;;;;;;91.25;75.00;;;;;;;;5051604;27;8793;-84
2021/12/18 06:17:48;;;;;;;;;96.50;84.50;;;;;;;;5051108;28;9551;-83
2021/12/18 06:20:13;;;;;;;;;99.50;87.25;;;;;;;;5051397;27;8816;-84
2021/12/18 06:22:38;;;;;;;;;92.50;74.50;;;;;;;;5051591;28;8824;-84
2021/12/18 06:25:04;;;;;;;;;84.75;68.00;;;;;;;;5051315;27;8816;-84
2021/12/18 06:27:29;;;;;;;;;82.75;67.25;;;;;;;;5051914;28;8819;-84
2021/12/18 06:29:55;;;;;;;;;95.75;74.25;;;;;;;;5050261;27;8844;-83
2021/12/18 06:32:20;;;;;;;;;88.75;70.50;;;;;;;;5051287;27;8851;-84
2021/12/18 06:34:45;;;;;;;;;83.50;65.50;;;;;;;;5051188;27;8828;-84
2021/12/18 06:37:11;;;;;;;;;89.33;70.33;;;;;;;;5050777;27;8824;-84
2021/12/18 06:39:36;;;;;;;;;82.00;66.67;;;;;;;;5051530;28;8957;-83
2021/12/18 06:42:01;;;;;;;;;76.25;58.00;;;;;;;;5064386;27;8926;-85
2021/12/18 06:44:28;;;;;;;;;93.50;76.00;;;;;;;;5059266;27;8832;-84
2021/12/18 06:46:56;;;;;;;;;97.00;82.75;;;;;;;;5048474;27;9276;-85
2021/12/18 06:49:21;;;;;;;;;100.50;92.50;;;;;;;;5049584;28;8800;-84
2021/12/18 06:51:46;;;;;;;;;103.20;94.20;;;;;;;;5055029;27;8817;-83
2021/12/18 06:54:12;;;;;;;;;97.00;83.25;;;;;;;;5060430;27;9609;-83
2021/12/18 06:56:37;;;;;;;;;95.00;82.33;;;;;;;;5041083;27;8822;-83
2021/12/18 06:59:03;;;;;;;;;93.75;78.25;;;;;;;;5050805;27;8812;-84
2021/12/18 07:01:28;;;;;;;;;103.67;96.33;;;;;;;;5051767;27;8816;-83
2021/12/18 07:03:53;;;;;;;;;103.25;94.75;;;;;;;;5049873;28;8912;-83
2021/12/18 07:06:18;;;;;;;;;105.25;98.50;;;;;;;;5085677;27;8841;-82
2021/12/18 07:08:44;;;;;;;;;104.75;97.75;;;;;;;;5069483;27;8800;-82
2021/12/18 07:11:09;;;;;;;;;101.33;91.33;;;;;;;;5050924;28;8796;-83
2021/12/18 07:13:34;;;;;;;;;103.75;93.50;;;;;;;;5050296;27;8800;-82
2021/12/18 07:16:00;;;;;;;;;101.50;90.00;;;;;;;;5052488;28;8832;-80
2021/12/18 07:18:25;;;;;;;;;105.00;99.00;;;;;;;;5051566;27;8804;-82
2021/12/18 07:20:52;;;;;;;;;109.50;105.50;;;;;;;;5051095;27;8846;-83
2021/12/18 07:23:18;;;;;;;;;102.00;94.80;;;;;;;;5050871;27;8752;-82
2021/12/18 07:25:43;;;;;;;;;112.75;108.75;;;;;;;;5050126;28;8899;-83
2021/12/18 07:28:08;;;;;;;;;110.25;108.25;;;;;;;;5052831;27;8811;-80
2021/12/18 07:30:34;;;;;;;;;102.67;90.33;;;;;;;;5063411;28;8854;-80
2021/12/18 07:33:00;;;;;;;;;107.75;100.50;;;;;;;;5049664;27;9291;-84
2021/12/18 07:35:25;;;;;;;;;100.60;87.60;;;;;;;;5049106;28;8819;-83
2021/12/18 07:37:50;;;;;;;;;103.50;93.00;;;;;;;;5049394;27;8905;-81
2021/12/18 07:40:16;;;;;;;;;97.50;86.00;;;;;;;;5050103;27;8816;-82
2021/12/18 07:42:41;;;;;;;;;106.67;98.67;;;;;;;;5048561;27;8820;-82
2021/12/18 07:45:07;;;;;;;;;99.25;88.25;;;;;;;;5114768;27;8792;-81
2021/12/18 07:47:32;;;;;;;;;96.50;81.50;;;;;;;;5049640;27;8831;-81
2021/12/18 07:49:58;;;;;;;;;101.25;89.25;;;;;;;;5047999;28;8800;-81
2021/12/18 07:52:24;;;;;;;;;106.75;101.00;;;;;;;;5049973;27;8816;-81
2021/12/18 07:54:50;;;;;;;;;105.75;96.00;;;;;;;;5049519;28;9391;-82
2021/12/18 07:57:15;;;;;;;;;102.00;89.75;;;;;;;;5046685;27;11661;-81
2021/12/18 07:59:40;;;;;;;;;91.75;73.00;;;;;;;;5049428;28;12354;-81
2021/12/18 08:02:06;;;;;;;;;106.00;100.67;;;;;;;;5049907;28;8808;-81
2021/12/18 08:04:32;;;;;;;;;97.00;83.00;;;;;;;;5048595;27;8907;-81
2021/12/18 08:06:57;;;;;;;;;113.00;103.00;;;;;;;;5113750;27;8828;-81
2021/12/18 08:09:23;;;;;;;;;107.33;99.00;;;;;;;;5056678;27;10924;-81
2021/12/18 08:11:48;;;;;;;;;103.67;89.33;;;;;;;;5052570;28;8832;-81
2021/12/18 08:14:13;;;;;;;;;101.00;88.33;;;;;;;;5052789;27;8808;-81
2021/12/18 08:16:39;;;;;;;;;112.00;106.00;;;;;;;;5052902;28;8847;-81
2021/12/18 08:19:04;;;;;;;;;109.00;103.50;;;;;;;;5052407;27;8820;-82
2021/12/18 08:21:29;;;;;;;;;102.50;90.75;;;;;;;;5065656;28;8916;-81
2021/12/18 08:23:55;;;;;;;;;105.50;100.25;;;;;;;;5072422;27;8852;-81
2021/12/18 08:26:20;;;;;;;;;109.25;102.75;;;;;;;;5073116;28;8841;-82
2021/12/18 08:28:46;;;;;;;;;94.50;79.25;;;;;;;;5053075;27;8812;-82
2021/12/18 08:31:11;;;;;;;;;101.00;89.00;;;;;;;;5052641;28;8846;-82
2021/12/18 08:33:36;;;;;;;;;110.50;102.75;;;;;;;;5052280;27;9606;-82
2021/12/18 08:36:02;;;;;;;;;102.75;94.25;;;;;;;;5045357;28;8834;-82
2021/12/18 08:38:27;;;;;;;;;117.40;114.80;;;;;;;;5045972;28;8957;-82
2021/12/18 08:40:53;;;;;;;;;103.75;94.00;;;;;;;;5052426;28;8808;-82
2021/12/18 08:43:18;;;;;;;;;104.00;92.25;;;;;;;;5069012;27;8801;-82
2021/12/18 08:45:43;;;;;;;;;106.50;103.50;;;;;;;;5052302;27;8835;-82
2021/12/18 08:48:09;;;;;;;;;105.25;99.75;;;;;;;;5052367;28;8838;-82
2021/12/18 08:50:34;;;;;;;;;106.25;101.00;;;;;;;;5052643;27;8815;-82
2021/12/18 08:52:59;;;;;;;;;100.50;88.00;;;;;;;;5052059;28;8831;-82
2021/12/18 08:55:25;;;;;;;;;102.50;93.25;;;;;;;;5052594;28;8872;-82
2021/12/18 08:57:51;;;;;;;;;109.50;105.25;;;;;;;;5050566;27;8878;-82
2021/12/18 09:00:20;;;;;;;;;97.20;85.00;;;;;;;;5052846;28;8811;-82
2021/12/18 09:02:46;;;;;;;;;106.00;100.00;;;;;;;;5051878;27;8790;-82
2021/12/18 09:05:11;;;;;;;;;100.20;90.00;;;;;;;;5052626;27;8815;-82
2021/12/18 09:07:37;;;;;;;;;101.00;89.25;;;;;;;;5068146;27;8955;-82
2021/12/18 09:10:03;;;;;;;;;100.33;88.33;;;;;;;;5052198;28;11546;-81
2021/12/18 09:12:28;;;;;;;;;90.75;77.25;;;;;;;;5052484;27;9795;-82
2021/12/18 09:14:54;;;;;;;;;96.25;84.00;;;;;;;;5052197;28;8792;-82
2021/12/18 09:17:19;;;;;;;;;88.00;73.00;;;;;;;;5052140;27;9632;-82
2021/12/18 09:19:44;;;;;;;;;96.75;81.50;;;;;;;;5049721;28;8819;-82
2021/12/18 09:22:10;;;;;;;;;83.25;67.25;;;;;;;;5051996;27;8819;-82
2021/12/18 09:24:35;;;;;;;;;85.00;66.33;;;;;;;;5052512;28;8787;-82
2021/12/18 09:27:01;;;;;;;;;84.60;68.60;;;;;;;;5051681;27;8816;-82
2021/12/18 09:29:26;;;;;;;;;87.67;69.67;;;;;;;;5052416;27;8811;-82
2021/12/18 09:31:52;;;;;;;;;98.50;80.25;;;;;;;;5051632;28;8904;-82
2021/12/18 09:34:17;;;;;;;;;81.25;64.75;;;;;;;;5052094;27;8909;-82
2021/12/18 09:36:42;;;;;;;;;87.75;70.00;;;;;;;;5039545;28;8822;-82
2021/12/18 09:39:08;;;;;;;;;89.25;71.00;;;;;;;;5050932;27;8816;-82
2021/12/18 09:41:34;;;;;;;;;97.00;81.50;;;;;;;;5052195;28;8816;-82
2021/12/18 09:43:59;;;;;;;;;90.00;71.00;;;;;;;;5066660;27;8797;-82
2021/12/18 09:46:25;;;;;;;;;93.25;74.50;;;;;;;;5050980;27;8950;-82
2021/12/18 09:48:50;;;;;;;;;81.00;63.33;;;;;;;;5054566;27;8812;-82
2021/12/18 09:51:27;;;;;;;;;92.80;75.60;;;;;;;;5087511;27;8796;-81
2021/12/18 09:53:53;;;;;;;;;100.50;89.75;;;;;;;;5042617;27;8901;-81
2021/12/18 09:56:19;;;;;;;;;86.80;70.60;;;;;;;;5051865;27;8775;-80
2021/12/18 09:58:45;;;;;;;;;96.00;81.00;;;;;;;;5051886;28;8939;-80
2021/12/18 10:01:10;;;;;;;;;82.80;67.80;;;;;;;;5053366;27;11670;-80
2021/12/18 10:03:48;;;;;;;;;85.50;68.50;;;;;;;;5049849;28;8804;-81
2021/12/18 10:06:37;;;;;;;;;90.20;77.00;;;;;;;;5125105;27;9485;-80
2021/12/18 10:09:04;;;;;;;;;90.50;75.50;;;;;;;;5046987;27;8882;-81
2021/12/18 10:11:29;;;;;;;;;88.00;72.50;;;;;;;;5051251;27;8819;-79
2021/12/18 10:13:56;;;;;;;;;84.00;67.00;;;;;;;;5050872;28;8823;-80
2021/12/18 10:16:22;;;;;;;;;90.60;77.00;;;;;;;;5063112;27;8822;-80
2021/12/18 10:18:49;;;;;;;;;86.20;69.00;;;;;;;;5051439;28;8780;-80
2021/12/18 10:21:16;;;;;;;;;88.80;71.80;;;;;;;;5049953;27;8796;-81
2021/12/18 10:23:42;;;;;;;;;92.50;76.75;;;;;;;;5051498;28;8798;-81
2021/12/18 10:26:27;;;;;;;;;86.60;69.00;;;;;;;;5051246;27;8792;-81
2021/12/18 10:28:52;;;;;;;;;89.00;72.50;;;;;;;;5051185;27;8776;-81
2021/12/18 10:31:36;;;;;;;;;90.33;74.00;;;;;;;;5049956;28;8803;-77
2021/12/18 10:34:28;;;;;;;;;92.75;79.50;;;;;;;;5050126;28;11562;-80
2021/12/18 10:37:19;;;;;;;;;91.40;74.80;;;;;;;;5053151;28;8935;-80
2021/12/18 10:39:53;;;;;;;;;94.60;85.80;;;;;;;;5054295;27;8801;-80
2021/12/18 10:42:24;;;;;;;;;95.50;85.25;;;;;;;;5048200;28;8785;-80
2021/12/18 10:45:04;;;;;;;;;85.25;67.75;;;;;;;;5083554;27;8914;-80
2021/12/18 10:47:42;;;;;;;;;92.60;81.00;;;;;;;;5049936;27;9699;-81
2021/12/18 10:50:22;;;;;;;;;94.50;83.50;;;;;;;;5047050;28;9671;-81
2021/12/18 10:53:11;;;;;;;;;89.00;75.00;;;;;;;;5051004;27;8761;-81
2021/12/18 10:55:39;;;;;;;;;83.00;67.20;;;;;;;;5050508;28;8822;-81
2021/12/18 10:58:07;;;;;;;;;90.60;76.60;;;;;;;;5044807;28;8832;-81
2021/12/18 11:00:34;;;;;;;;;84.75;67.75;;;;;;;;5051309;27;8781;-81
2021/12/18 11:03:12;;;;;;;;;95.75;87.50;;;;;;;;5050571;27;8804;-81
2021/12/18 11:05:37;;;;;;;;;96.00;85.50;;;;;;;;5055883;27;8973;-81
2021/12/18 11:08:09;;;;;;;;;90.67;76.00;;;;;;;;5062097;27;8872;-81
2021/12/18 11:15:50;;;;;;;;;91.00;75.00;;;;;;;;5050755;28;8729;-81
2021/12/18 11:18:15;;;;;;;;;91.00;78.75;;;;;;;;5050888;27;8847;-81
2021/12/18 11:20:41;;;;;;;;;86.50;67.50;;;;;;;;5050498;28;8807;-81
2021/12/18 11:23:07;;;;;;;;;91.50;82.00;;;;;;;;5050832;27;12337;-81
2021/12/18 11:25:32;;;;;;;;;96.50;89.50;;;;;;;;5050657;28;8838;-81
2021/12/18 11:27:58;;;;;;;;;103.80;102.00;;;;;;;;5050454;27;8793;-81
2021/12/18 11:30:23;;;;;;;;;99.80;94.60;;;;;;;;5050580;28;9575;-81
2021/12/18 11:32:54;;;;;;;;;98.00;91.25;;;;;;;;5050139;27;8816;-82
2021/12/18 11:35:20;;;;;;;;;95.00;88.20;;;;;;;;5048217;27;8820;-82
2021/12/18 11:37:51;;;;;;;;;95.20;89.60;;;;;;;;5036381;28;8816;-81
2021/12/18 11:40:21;;;;;;;;;79.00;63.20;;;;;;;;5050688;27;8868;-83
2021/12/18 11:42:46;;;;;;;;;104.00;101.40;;;;;;;;5051946;27;8808;-81
2021/12/18 11:45:12;;;;;;;;;103.75;100.50;;;;;;;;5068353;27;8812;-81
2021/12/18 11:47:37;;;;;;;;;100.00;97.40;;;;;;;;5053176;27;8816;-84
2021/12/18 11:50:17;;;;;;;;;87.67;72.00;;;;;;;;5053615;27;9552;-79
2021/12/18 11:53:01;;;;;;;;;96.80;91.80;;;;;;;;5054015;27;8831;-78
2021/12/18 11:55:29;;;;;;;;;87.00;73.00;;;;;;;;5052219;27;8744;-78
2021/12/18 11:57:58;;;;;;;;;78.50;63.75;;;;;;;;5049927;28;8793;-77
2021/12/18 12:00:32;;;;;;;;;70.60;58.00;;;;;;;;5053133;27;8872;-78
2021/12/18 12:02:59;;;;;;;;;92.20;86.00;;;;;;;;5056339;27;9719;-78
2021/12/18 12:05:32;;;;;;;;;73.00;59.00;;;;;;;;5064017;27;8800;-78
2021/12/18 12:08:16;;;;;;;;;72.50;59.00;;;;;;;;5081940;27;8820;-78
2021/12/18 12:11:02;;;;;;;;;68.50;57.50;;;;;;;;5052893;27;8822;-78
2021/12/18 12:13:46;;;;;;;;;65.25;54.75;;;;;;;;5053454;27;8946;-77
2021/12/18 12:16:12;;;;;;;;;93.25;85.75;;;;;;;;5056376;27;8804;-80
2021/12/18 12:18:56;;;;;;;;;29.33;27.33;;;;;;;;5051178;28;11574;-81
2021/12/18 12:21:41;;;;;;;;;58.25;49.75;;;;;;;;5053075;27;8749;-80
2021/12/18 12:24:07;;;;;;;;;78.20;64.20;;;;;;;;5052786;28;8780;-79
2021/12/18 12:26:33;;;;;;;;;69.50;58.00;;;;;;;;5054941;27;8789;-80
2021/12/18 12:28:58;;;;;;;;;74.50;59.50;;;;;;;;5052654;28;9271;-81
2021/12/18 12:31:24;;;;;;;;;82.67;68.00;;;;;;;;5052719;27;9612;-80
2021/12/18 12:33:50;;;;;;;;;80.25;66.00;;;;;;;;5071038;27;8820;-80
2021/12/18 12:36:23;;;;;;;;;91.00;83.40;;;;;;;;5109814;27;8808;-80
2021/12/18 12:38:52;;;;;;;;;80.20;66.20;;;;;;;;5050955;27;8796;-80
2021/12/18 12:41:26;;;;;;;;;92.00;84.50;;;;;;;;5051316;28;8800;-82
2021/12/18 12:43:53;;;;;;;;;90.60;80.40;;;;;;;;5052173;27;8792;-82
2021/12/18 12:46:19;;;;;;;;;84.00;72.00;;;;;;;;5054245;27;8858;-82
2021/12/18 12:48:57;;;;;;;;;81.60;68.80;;;;;;;;5052105;28;8776;-82
2021/12/18 12:51:23;;;;;;;;;103.00;95.83;;;;;;;;5052448;27;8808;-85
2021/12/18 12:53:52;;;;;;;;;105.67;104.00;;;;;;;;5106385;27;8844;-82
2021/12/18 12:56:19;;;;;;;;;92.20;86.60;;;;;;;;5047892;28;11202;-82
2021/12/18 12:58:44;;;;;;;;;135.20;134.00;;;;;;;;5061176;27;11541;-83
2021/12/18 13:01:10;;;;;;;;;111.20;108.00;;;;;;;;5109796;27;8834;-83
2021/12/18 13:03:37;;;;;;;;;125.50;122.50;;;;;;;;5061689;27;8918;-82
2021/12/18 13:06:07;;;;;;;;;145.00;144.40;;;;;;;;5082542;27;8841;-83
2021/12/18 13:08:34;;;;;;;;;100.00;96.40;;;;;;;;5115384;27;8870;-89
2021/12/18 13:11:01;;;;;;;;;153.83;149.50;;;;;;;;5052116;27;8780;-86
2021/12/18 13:13:28;;;;;;;;;134.83;134.83;;;;;;;;5097027;27;8808;-87
2021/12/18 13:15:59;;;;;;;;;95.80;91.20;;;;;;;;5063208;27;8776;-88
2021/12/18 13:18:29;;;;;;;;;154.60;151.40;;;;;;;;5059332;27;9989;-88
2021/12/18 13:21:00;;;;;;;;;114.20;111.60;;;;;;;;5105152;27;11481;-89
2021/12/18 13:23:38;;;;;;;;;80.80;66.80;;;;;;;;5069641;27;8808;-87
2021/12/18 13:26:04;;;;;;;;;84.20;71.40;;;;;;;;5052579;27;8815;-88
2021/12/18 13:28:29;;;;;;;;;37.80;35.80;;;;;;;;5049504;27;8808;-88
2021/12/18 13:30:56;;;;;;;;;62.00;51.75;;;;;;;;5052095;27;9694;-87
2021/12/18 13:33:31;;;;;;;;;79.60;65.00;;;;;;;;5051557;27;8800;-91
2021/12/18 13:35:58;;;;;;;;;76.00;61.67;;;;;;;;5057679;28;8780;-88
2021/12/18 13:38:25;;;;;;;;;74.40;62.00;;;;;;;;5050596;27;8804;-91
2021/12/18 13:40:51;;;;;;;;;83.33;71.33;;;;;;;;5091284;27;11575;-88
2021/12/18 13:43:18;;;;;;;;;78.60;63.40;;;;;;;;5056861;27;8802;-88
2021/12/18 13:45:54;;;;;;;;;109.17;107.00;;;;;;;;5046034;27;8857;-88
2021/12/18 13:48:26;;;;;;;;;101.40;99.00;;;;;;;;5049052;27;8815;-88
2021/12/18 13:51:11;;;;;;;;;123.67;122.83;;;;;;;;5050131;28;8884;-88
2021/12/18 13:53:49;;;;;;;;;113.67;112.17;;;;;;;;5049431;27;8912;-90
2021/12/18 13:56:15;;;;;;;;;89.67;83.00;;;;;;;;5051825;27;8826;-88
2021/12/18 13:58:40;;;;;;;;;118.83;118.83;;;;;;;;5045522;27;8792;-87
2021/12/18 14:01:05;;;;;;;;;90.50;81.25;;;;;;;;5052952;28;8792;-87
2021/12/18 14:03:37;;;;;;;;;107.00;105.20;;;;;;;;5055434;27;8889;-84
2021/12/18 14:06:21;;;;;;;;;116.67;112.83;;;;;;;;5072679;27;8840;-84
2021/12/18 14:09:12;;;;;;;;;116.17;113.17;;;;;;;;5058918;27;8996;-84
2021/12/18 14:12:02;;;;;;;;;85.75;73.50;;;;;;;;5057205;28;8796;-84
2021/12/18 14:14:32;;;;;;;;;106.80;106.20;;;;;;;;5051012;28;8876;-84
2021/12/18 14:16:57;;;;;;;;;100.17;98.67;;;;;;;;5050457;28;8772;-83
2021/12/18 14:19:33;;;;;;;;;112.00;111.67;;;;;;;;5051132;27;9730;-84
2021/12/18 14:21:58;;;;;;;;;94.33;88.00;;;;;;;;5050759;27;8745;-84
2021/12/18 14:24:24;;;;;;;;;92.00;85.40;;;;;;;;5051152;28;9644;-76
2021/12/18 14:26:58;;;;;;;;;94.40;91.60;;;;;;;;5049747;27;8824;-84
2021/12/18 14:29:24;;;;;;;;;86.20;75.00;;;;;;;;5051088;28;8827;-83
2021/12/18 14:31:51;;;;;;;;;122.80;121.60;;;;;;;;5050375;27;8836;-84
2021/12/18 14:34:26;;;;;;;;;119.60;116.80;;;;;;;;5050334;27;8849;-83
2021/12/18 14:37:04;;;;;;;;;91.80;86.20;;;;;;;;5050761;27;8846;-84
2021/12/18 14:39:34;;;;;;;;;120.20;118.60;;;;;;;;5050608;28;8788;-83
2021/12/18 14:42:12;;;;;;;;;110.20;109.40;;;;;;;;5051066;27;8872;-83
2021/12/18 14:44:42;;;;;;;;;125.00;123.60;;;;;;;;5087057;27;9622;-82
2021/12/18 14:47:13;;;;;;;;;109.00;105.83;;;;;;;;5050596;28;8780;-82
2021/12/18 14:49:52;;;;;;;;;110.00;108.50;;;;;;;;5050838;27;8796;-83
2021/12/18 14:52:18;;;;;;;;;126.33;126.00;;;;;;;;5053537;27;11582;-83
2021/12/18 14:54:50;;;;;;;;;215.60;213.60;;;;;;;;5070767;28;8904;-84
2021/12/18 14:57:17;;;;;;;;;92.83;86.67;;;;;;;;5039580;27;8788;-84
2021/12/18 14:59:45;;;;;;;;;129.80;129.80;;;;;;;;5050850;28;8892;-83
2021/12/18 15:02:11;;;;;;;;;138.33;133.17;;;;;;;;5049370;27;8780;-84
2021/12/18 15:04:36;;;;;;;;;122.80;120.20;;;;;;;;5056516;27;8827;-83
2021/12/18 15:07:02;;;;;;;;;100.00;97.25;;;;;;;;5095816;27;8820;-82
2021/12/18 15:09:28;;;;;;;;;99.00;93.67;;;;;;;;5050493;27;12380;-83
2021/12/18 15:11:54;;;;;;;;;112.50;107.83;;;;;;;;5050511;28;10575;-83
2021/12/18 15:14:24;;;;;;;;;108.80;102.20;;;;;;;;5050825;27;8816;-82
2021/12/18 15:16:58;;;;;;;;;113.00;109.00;;;;;;;;5049198;28;8783;-82
2021/12/18 15:19:30;;;;;;;;;110.00;106.00;;;;;;;;5050230;27;8788;-82
2021/12/18 15:21:58;;;;;;;;;104.17;96.50;;;;;;;;5037650;28;8785;-82